Ritzville, WA

9:50 AM PDT on October 25, 2014 (GMT -0700)
Grange Supply of Odessa | Change Station
CLOSE
Current Station
Personal Weather Station
Location: Odessa, WA
Elevation: 1539 ft
Nearby Weather Stations
Active Advisory: Wind Advisory

Elev 1539 ft 47.33 °N, 118.69 °W | Updated 3 seconds ago

Clear
Clear
52.2 °F
Feels Like 52.2 °F
N
6.0
Wind Variable Wind from East
Gusts 15.0 mph

Today
High -- | Low -- °F
--% Chance of Precip.
Yesterday
High -- | Low -- °F
Precip. -- in
7:26 AM 5:48 PM
Waxing Crescent, 3% visible
Pressure 29.65 in
Visibility 10.0 miles
Clouds Clear
Dew Point 43 °F
Humidity 70%
Rainfall 0.00 in
Snow Depth Not available.
UV 1 out of 12
Pollen 1.50 out of 12
Air Quality Not available.
Flu Activity Not available.
METAR KMWH 251552Z 34008KT 10SM CLR 08/06 A2964 RMK AO2 SLP041 T00830061

More Conditions Fewer Conditions

Pressure 29.65 in
Visibility 10.0 miles
Clouds Clear
Dew Point 43 °F
Humidity 70%
Rainfall 0.00 in
Snow Depth Not available.
UV 1 out of 12
Pollen 1.50 out of 12
Air Quality Not available.
Flu Activity Not available.
METAR KMWH 251552Z 34008KT 10SM CLR 08/06 A2964 RMK AO2 SLP041 T00830061

More Conditions Fewer Conditions

10-Day Weather Forecast

Almanac

Astronomy

Oct. 25, 2014 Rise Set
Actual Time 7:26 AM PDT 5:48 PM PDT
Civil Twilight 6:54 AM PDT 6:19 PM PDT
Nautical Twilight 6:19 AM PDT 6:55 PM PDT
Astronomical Twilight 5:43 AM PDT 7:30 PM PDT
Moon 9:15 AM PDT 7:08 PM PDT
Length of Visible Light 11h 24m
Length of Day
10h 21m
Tomorrow will be 3m 9s shorter.
Waxing Crescent, 3% of the Moon is Illuminated
Today
Waxing Crescent
Oct 30
First Quarter
Nov 6
Full
Nov 14
Last Quarter
Nov 22
New

Today's Extremes

State Highs State Lows

Community

WunderPhotos

Upload Photos

1,764,901 photos uploaded!

Nearby

Snow Depth

Station Depth Elevation
Touchet 1 in 5530 ft
Sourdough Gulch 1 in 4000 ft
Quartz Peak 1 in 4700 ft
Trough 0 in 5300 ft
Moses Mountain 1 in 5300 ft

Earthquake Activity

City Distance Mag. Time & Date
No recent earthquake activity has been reported nearby.
Minimum magnitude displayed is 2.5.

Coastal Water Temperatures

Place Temperature
No Stations Reporting

Nearby Weather Stations